sensor_id;sensor_type;location;lat;lon;timestamp;temperature;humidity
70154;DHT22;57519;51.494;-2.626;2023-04-07T00:02:06;3.63;91.00
70154;DHT22;57519;51.494;-2.626;2023-04-07T00:04:31;3.56;91.21
70154;DHT22;57519;51.494;-2.626;2023-04-07T00:06:58;3.56;91.49
70154;DHT22;57519;51.494;-2.626;2023-04-07T00:09:23;3.51;91.56
70154;DHT22;57519;51.494;-2.626;2023-04-07T00:11:49;3.54;91.79
70154;DHT22;57519;51.494;-2.626;2023-04-07T00:14:16;3.50;91.70
70154;DHT22;57519;51.494;-2.626;2023-04-07T00:16:41;3.45;91.48
70154;DHT22;57519;51.494;-2.626;2023-04-07T00:19:06;3.39;91.25
70154;DHT22;57519;51.494;-2.626;2023-04-07T00:21:32;3.39;91.65
70154;DHT22;57519;51.494;-2.626;2023-04-07T00:23:57;3.41;91.42
70154;DHT22;57519;51.494;-2.626;2023-04-07T00:26:23;3.44;91.47
70154;DHT22;57519;51.494;-2.626;2023-04-07T00:28:51;3.28;91.31
70154;DHT22;57519;51.494;-2.626;2023-04-07T00:31:16;3.27;91.49
70154;DHT22;57519;51.494;-2.626;2023-04-07T00:33:42;3.32;91.67
70154;DHT22;57519;51.494;-2.626;2023-04-07T00:36:07;3.27;91.72
70154;DHT22;57519;51.494;-2.626;2023-04-07T00:38:33;3.32;91.67
70154;DHT22;57519;51.494;-2.626;2023-04-07T00:40:58;3.34;91.59
70154;DHT22;57519;51.494;-2.626;2023-04-07T00:43:24;3.31;91.65
70154;DHT22;57519;51.494;-2.626;2023-04-07T00:45:50;3.25;91.58
70154;DHT22;57519;51.494;-2.626;2023-04-07T00:48:17;3.23;91.57
70154;DHT22;57519;51.494;-2.626;2023-04-07T00:50:44;3.27;92.06
70154;DHT22;57519;51.494;-2.626;2023-04-07T00:53:11;3.38;92.14
70154;DHT22;57519;51.494;-2.626;2023-04-07T00:55:36;3.39;91.89
70154;DHT22;57519;51.494;-2.626;2023-04-07T00:58:02;3.42;91.95
70154;DHT22;57519;51.494;-2.626;2023-04-07T01:00:31;3.34;91.66
70154;DHT22;57519;51.494;-2.626;2023-04-07T01:03:00;3.28;91.61
70154;DHT22;57519;51.494;-2.626;2023-04-07T01:05:41;3.25;91.42
70154;DHT22;57519;51.494;-2.626;2023-04-07T01:08:13;3.14;91.51
70154;DHT22;57519;51.494;-2.626;2023-04-07T01:10:41;3.13;91.77
70154;DHT22;57519;51.494;-2.626;2023-04-07T01:15:54;3.10;91.77
70154;DHT22;57519;51.494;-2.626;2023-04-07T01:18:26;3.13;91.95
70154;DHT22;57519;51.494;-2.626;2023-04-07T01:20:59;3.07;91.99
70154;DHT22;57519;51.494;-2.626;2023-04-07T01:23:39;3.11;91.96
70154;DHT22;57519;51.494;-2.626;2023-04-07T01:26:20;3.11;91.70
70154;DHT22;57519;51.494;-2.626;2023-04-07T01:31:45;3.24;91.70
70154;DHT22;57519;51.494;-2.626;2023-04-07T01:34:12;3.25;91.74
70154;DHT22;57519;51.494;-2.626;2023-04-07T01:36:38;3.25;91.81
70154;DHT22;57519;51.494;-2.626;2023-04-07T01:39:05;3.18;91.51
70154;DHT22;57519;51.494;-2.626;2023-04-07T01:41:32;3.17;91.66
70154;DHT22;57519;51.494;-2.626;2023-04-07T01:43:57;2.96;91.30
70154;DHT22;57519;51.494;-2.626;2023-04-07T01:46:23;2.79;91.85
70154;DHT22;57519;51.494;-2.626;2023-04-07T01:48:50;2.73;91.93
70154;DHT22;57519;51.494;-2.626;2023-04-07T01:51:16;2.83;92.35
70154;DHT22;57519;51.494;-2.626;2023-04-07T01:53:45;2.86;92.28
70154;DHT22;57519;51.494;-2.626;2023-04-07T01:56:11;2.86;92.11
70154;DHT22;57519;51.494;-2.626;2023-04-07T01:58:37;2.79;91.92
70154;DHT22;57519;51.494;-2.626;2023-04-07T02:01:02;2.83;91.97
70154;DHT22;57519;51.494;-2.626;2023-04-07T02:03:48;2.90;91.87
70154;DHT22;57519;51.494;-2.626;2023-04-07T02:06:17;2.94;91.89
70154;DHT22;57519;51.494;-2.626;2023-04-07T02:09:04;2.77;91.57
70154;DHT22;57519;51.494;-2.626;2023-04-07T02:11:32;2.48;91.93
70154;DHT22;57519;51.494;-2.626;2023-04-07T02:13:59;2.38;92.65
70154;DHT22;57519;51.494;-2.626;2023-04-07T02:16:28;2.31;92.48
70154;DHT22;57519;51.494;-2.626;2023-04-07T02:18:55;2.35;92.40
70154;DHT22;57519;51.494;-2.626;2023-04-07T02:21:21;2.44;92.32
70154;DHT22;57519;51.494;-2.626;2023-04-07T02:23:47;2.48;92.16
70154;DHT22;57519;51.494;-2.626;2023-04-07T02:26:12;2.48;91.92
70154;DHT22;57519;51.494;-2.626;2023-04-07T02:28:38;2.38;92.29
70154;DHT22;57519;51.494;-2.626;2023-04-07T02:31:03;2.41;92.08
70154;DHT22;57519;51.494;-2.626;2023-04-07T02:33:28;2.39;91.99
70154;DHT22;57519;51.494;-2.626;2023-04-07T02:35:54;2.45;91.93
70154;DHT22;57519;51.494;-2.626;2023-04-07T02:38:20;2.48;91.84
70154;DHT22;57519;51.494;-2.626;2023-04-07T02:40:45;2.50;91.87
70154;DHT22;57519;51.494;-2.626;2023-04-07T02:43:10;2.39;91.48
70154;DHT22;57519;51.494;-2.626;2023-04-07T02:45:36;2.31;91.48
70154;DHT22;57519;51.494;-2.626;2023-04-07T02:48:01;2.31;91.61
70154;DHT22;57519;51.494;-2.626;2023-04-07T02:50:27;2.35;91.76
70154;DHT22;57519;51.494;-2.626;2023-04-07T02:52:53;2.39;91.74
70154;DHT22;57519;51.494;-2.626;2023-04-07T02:55:18;2.29;91.47
70154;DHT22;57519;51.494;-2.626;2023-04-07T02:57:44;2.35;91.64
70154;DHT22;57519;51.494;-2.626;2023-04-07T03:00:10;2.11;91.31
70154;DHT22;57519;51.494;-2.626;2023-04-07T03:02:36;2.21;92.56
70154;DHT22;57519;51.494;-2.626;2023-04-07T03:05:01;2.38;92.70
70154;DHT22;57519;51.494;-2.626;2023-04-07T03:07:28;2.44;92.47
70154;DHT22;57519;51.494;-2.626;2023-04-07T03:09:56;2.20;91.74
70154;DHT22;57519;51.494;-2.626;2023-04-07T03:12:21;2.13;91.67
70154;DHT22;57519;51.494;-2.626;2023-04-07T03:14:47;1.94;91.65
70154;DHT22;57519;51.494;-2.626;2023-04-07T03:17:12;1.91;92.14
70154;DHT22;57519;51.494;-2.626;2023-04-07T03:19:38;1.91;91.92
70154;DHT22;57519;51.494;-2.626;2023-04-07T03:22:03;1.96;92.04
70154;DHT22;57519;51.494;-2.626;2023-04-07T03:24:28;2.04;92.08
70154;DHT22;57519;51.494;-2.626;2023-04-07T03:26:54;2.01;91.91
70154;DHT22;57519;51.494;-2.626;2023-04-07T03:29:20;1.96;91.80
70154;DHT22;57519;51.494;-2.626;2023-04-07T03:31:45;1.93;91.83
70154;DHT22;57519;51.494;-2.626;2023-04-07T03:34:11;1.93;91.82
70154;DHT22;57519;51.494;-2.626;2023-04-07T03:36:36;1.87;91.82
70154;DHT22;57519;51.494;-2.626;2023-04-07T03:39:02;1.84;91.74
70154;DHT22;57519;51.494;-2.626;2023-04-07T03:41:27;1.87;91.85
70154;DHT22;57519;51.494;-2.626;2023-04-07T03:43:53;1.77;91.53
70154;DHT22;57519;51.494;-2.626;2023-04-07T03:46:19;1.74;91.82
70154;DHT22;57519;51.494;-2.626;2023-04-07T03:48:45;1.87;92.38
70154;DHT22;57519;51.494;-2.626;2023-04-07T03:51:11;1.84;91.98
70154;DHT22;57519;51.494;-2.626;2023-04-07T03:53:37;1.77;91.61
70154;DHT22;57519;51.494;-2.626;2023-04-07T03:56:03;1.76;91.84
70154;DHT22;57519;51.494;-2.626;2023-04-07T03:58:28;1.66;91.69
70154;DHT22;57519;51.494;-2.626;2023-04-07T04:00:54;1.58;91.68
70154;DHT22;57519;51.494;-2.626;2023-04-07T04:03:19;1.55;92.06
70154;DHT22;57519;51.494;-2.626;2023-04-07T04:05:45;1.64;92.34
70154;DHT22;57519;51.494;-2.626;2023-04-07T04:08:11;1.63;92.28
70154;DHT22;57519;51.494;-2.626;2023-04-07T04:10:36;1.62;92.31
70154;DHT22;57519;51.494;-2.626;2023-04-07T04:13:02;1.79;92.70
70154;DHT22;57519;51.494;-2.626;2023-04-07T04:15:31;1.76;92.38
70154;DHT22;57519;51.494;-2.626;2023-04-07T04:17:56;1.59;92.10
70154;DHT22;57519;51.494;-2.626;2023-04-07T04:20:21;1.63;92.12
70154;DHT22;57519;51.494;-2.626;2023-04-07T04:22:47;1.59;92.05
70154;DHT22;57519;51.494;-2.626;2023-04-07T04:25:12;1.53;91.85
70154;DHT22;57519;51.494;-2.626;2023-04-07T04:30:03;1.69;92.25
70154;DHT22;57519;51.494;-2.626;2023-04-07T04:32:29;1.64;92.02
70154;DHT22;57519;51.494;-2.626;2023-04-07T04:34:54;1.64;92.20
70154;DHT22;57519;51.494;-2.626;2023-04-07T04:37:20;1.63;92.17
70154;DHT22;57519;51.494;-2.626;2023-04-07T04:39:45;1.60;91.95
70154;DHT22;57519;51.494;-2.626;2023-04-07T04:42:11;1.53;91.92
70154;DHT22;57519;51.494;-2.626;2023-04-07T04:44:36;1.45;91.60
70154;DHT22;57519;51.494;-2.626;2023-04-07T04:47:02;1.46;91.83
70154;DHT22;57519;51.494;-2.626;2023-04-07T04:49:27;1.41;91.89
70154;DHT22;57519;51.494;-2.626;2023-04-07T04:51:53;1.39;91.90
70154;DHT22;57519;51.494;-2.626;2023-04-07T04:54:18;1.36;91.85
70154;DHT22;57519;51.494;-2.626;2023-04-07T04:56:44;1.43;91.89
70154;DHT22;57519;51.494;-2.626;2023-04-07T04:59:09;1.36;91.57
70154;DHT22;57519;51.494;-2.626;2023-04-07T05:01:35;1.39;91.80
70154;DHT22;57519;51.494;-2.626;2023-04-07T05:04:00;1.41;91.87
70154;DHT22;57519;51.494;-2.626;2023-04-07T05:06:26;1.36;91.67
70154;DHT22;57519;51.494;-2.626;2023-04-07T05:08:52;1.28;91.63
70154;DHT22;57519;51.494;-2.626;2023-04-07T05:11:18;1.18;91.54
70154;DHT22;57519;51.494;-2.626;2023-04-07T05:13:43;1.15;91.75
70154;DHT22;57519;51.494;-2.626;2023-04-07T05:16:09;1.09;91.83
70154;DHT22;57519;51.494;-2.626;2023-04-07T05:18:34;1.22;91.95
70154;DHT22;57519;51.494;-2.626;2023-04-07T05:20:59;1.22;92.01
70154;DHT22;57519;51.494;-2.626;2023-04-07T05:23:26;1.18;91.99
70154;DHT22;57519;51.494;-2.626;2023-04-07T05:25:52;1.15;91.89
70154;DHT22;57519;51.494;-2.626;2023-04-07T05:28:17;1.07;92.31
70154;DHT22;57519;51.494;-2.626;2023-04-07T05:30:43;1.02;92.35
70154;DHT22;57519;51.494;-2.626;2023-04-07T05:33:09;1.11;92.33
70154;DHT22;57519;51.494;-2.626;2023-04-07T05:35:35;1.17;92.25
70154;DHT22;57519;51.494;-2.626;2023-04-07T05:38:00;1.18;91.96
70154;DHT22;57519;51.494;-2.626;2023-04-07T05:40:25;1.17;91.90
70154;DHT22;57519;51.494;-2.626;2023-04-07T05:42:51;1.20;92.11
70154;DHT22;57519;51.494;-2.626;2023-04-07T05:45:16;0.97;92.21
70154;DHT22;57519;51.494;-2.626;2023-04-07T05:47:42;1.02;92.92
70154;DHT22;57519;51.494;-2.626;2023-04-07T05:50:08;1.01;92.59
70154;DHT22;57519;51.494;-2.626;2023-04-07T05:52:33;1.04;92.53
70154;DHT22;57519;51.494;-2.626;2023-04-07T05:54:59;1.07;92.34
70154;DHT22;57519;51.494;-2.626;2023-04-07T05:57:24;1.24;92.35
70154;DHT22;57519;51.494;-2.626;2023-04-07T05:59:52;1.29;92.20
70154;DHT22;57519;51.494;-2.626;2023-04-07T06:02:17;1.34;92.04
70154;DHT22;57519;51.494;-2.626;2023-04-07T06:04:43;1.48;92.19
70154;DHT22;57519;51.494;-2.626;2023-04-07T06:07:08;1.55;92.03
70154;DHT22;57519;51.494;-2.626;2023-04-07T06:09:33;1.62;91.89
70154;DHT22;57519;51.494;-2.626;2023-04-07T06:11:59;1.66;91.68
70154;DHT22;57519;51.494;-2.626;2023-04-07T06:14:25;1.66;91.45
70154;DHT22;57519;51.494;-2.626;2023-04-07T06:16:51;1.73;91.31
70154;DHT22;57519;51.494;-2.626;2023-04-07T06:19:16;1.77;91.35
70154;DHT22;57519;51.494;-2.626;2023-04-07T06:21:42;1.77;91.51
70154;DHT22;57519;51.494;-2.626;2023-04-07T06:24:07;1.84;91.88
70154;DHT22;57519;51.494;-2.626;2023-04-07T06:26:33;1.86;92.47
70154;DHT22;57519;51.494;-2.626;2023-04-07T06:28:58;1.93;92.75
70154;DHT22;57519;51.494;-2.626;2023-04-07T06:31:24;1.98;93.05
70154;DHT22;57519;51.494;-2.626;2023-04-07T06:33:50;2.11;93.37
70154;DHT22;57519;51.494;-2.626;2023-04-07T06:36:16;2.29;93.22
70154;DHT22;57519;51.494;-2.626;2023-04-07T06:38:42;2.44;92.94
70154;DHT22;57519;51.494;-2.626;2023-04-07T06:41:08;2.60;92.69
70154;DHT22;57519;51.494;-2.626;2023-04-07T06:43:37;2.77;92.68
70154;DHT22;57519;51.494;-2.626;2023-04-07T06:46:02;2.90;92.39
70154;DHT22;57519;51.494;-2.626;2023-04-07T06:48:28;3.03;92.44
70154;DHT22;57519;51.494;-2.626;2023-04-07T06:50:53;3.18;92.54
70154;DHT22;57519;51.494;-2.626;2023-04-07T06:53:18;3.34;92.59
70154;DHT22;57519;51.494;-2.626;2023-04-07T06:55:44;3.42;92.52
70154;DHT22;57519;51.494;-2.626;2023-04-07T06:58:10;3.54;92.28
70154;DHT22;57519;51.494;-2.626;2023-04-07T07:00:35;3.62;92.07
70154;DHT22;57519;51.494;-2.626;2023-04-07T07:03:01;3.73;92.17
70154;DHT22;57519;51.494;-2.626;2023-04-07T07:05:26;3.83;92.15
70154;DHT22;57519;51.494;-2.626;2023-04-07T07:07:52;3.93;92.03
70154;DHT22;57519;51.494;-2.626;2023-04-07T07:10:18;4.03;92.13
70154;DHT22;57519;51.494;-2.626;2023-04-07T07:12:47;4.16;92.07
70154;DHT22;57519;51.494;-2.626;2023-04-07T07:15:13;4.28;92.23
70154;DHT22;57519;51.494;-2.626;2023-04-07T07:17:38;4.40;92.27
70154;DHT22;57519;51.494;-2.626;2023-04-07T07:20:04;4.47;92.24
70154;DHT22;57519;51.494;-2.626;2023-04-07T07:22:30;4.59;92.40
70154;DHT22;57519;51.494;-2.626;2023-04-07T07:24:55;4.73;92.59
70154;DHT22;57519;51.494;-2.626;2023-04-07T07:27:21;4.86;92.54
70154;DHT22;57519;51.494;-2.626;2023-04-07T07:29:46;4.97;92.58
70154;DHT22;57519;51.494;-2.626;2023-04-07T07:32:12;5.09;92.67
70154;DHT22;57519;51.494;-2.626;2023-04-07T07:34:37;5.45;92.95
70154;DHT22;57519;51.494;-2.626;2023-04-07T07:37:02;5.58;92.79
70154;DHT22;57519;51.494;-2.626;2023-04-07T07:39:28;5.66;92.65
70154;DHT22;57519;51.494;-2.626;2023-04-07T07:41:54;5.92;91.73
70154;DHT22;57519;51.494;-2.626;2023-04-07T07:44:20;6.05;91.76
70154;DHT22;57519;51.494;-2.626;2023-04-07T07:46:47;6.23;90.37
70154;DHT22;57519;51.494;-2.626;2023-04-07T07:49:13;6.24;90.38
70154;DHT22;57519;51.494;-2.626;2023-04-07T07:51:38;6.33;88.53
70154;DHT22;57519;51.494;-2.626;2023-04-07T07:54:03;6.58;86.63
70154;DHT22;57519;51.494;-2.626;2023-04-07T07:56:29;6.81;83.02
70154;DHT22;57519;51.494;-2.626;2023-04-07T07:58:54;7.05;81.65
70154;DHT22;57519;51.494;-2.626;2023-04-07T08:01:20;7.30;79.22
70154;DHT22;57519;51.494;-2.626;2023-04-07T08:03:45;7.46;79.55
70154;DHT22;57519;51.494;-2.626;2023-04-07T08:06:11;7.65;79.26
70154;DHT22;57519;51.494;-2.626;2023-04-07T08:08:37;7.71;78.61
70154;DHT22;57519;51.494;-2.626;2023-04-07T08:11:02;7.63;77.85
70154;DHT22;57519;51.494;-2.626;2023-04-07T08:13:28;7.68;77.73
70154;DHT22;57519;51.494;-2.626;2023-04-07T08:15:54;7.82;78.10
70154;DHT22;57519;51.494;-2.626;2023-04-07T08:18:19;7.91;76.15
70154;DHT22;57519;51.494;-2.626;2023-04-07T08:20:45;7.99;75.59
70154;DHT22;57519;51.494;-2.626;2023-04-07T08:23:11;8.03;74.65
70154;DHT22;57519;51.494;-2.626;2023-04-07T08:25:37;8.14;75.09
70154;DHT22;57519;51.494;-2.626;2023-04-07T08:28:04;8.26;74.85
70154;DHT22;57519;51.494;-2.626;2023-04-07T08:30:30;8.36;73.97
70154;DHT22;57519;51.494;-2.626;2023-04-07T08:32:56;8.44;73.35
70154;DHT22;57519;51.494;-2.626;2023-04-07T08:35:21;8.61;72.58
70154;DHT22;57519;51.494;-2.626;2023-04-07T08:37:47;8.65;72.41
70154;DHT22;57519;51.494;-2.626;2023-04-07T08:40:13;8.65;73.49
70154;DHT22;57519;51.494;-2.626;2023-04-07T08:42:41;8.71;72.80
70154;DHT22;57519;51.494;-2.626;2023-04-07T08:45:08;8.77;72.74
70154;DHT22;57519;51.494;-2.626;2023-04-07T08:47:35;8.81;72.25
70154;DHT22;57519;51.494;-2.626;2023-04-07T08:50:06;8.78;72.36
70154;DHT22;57519;51.494;-2.626;2023-04-07T08:52:47;8.95;73.51
70154;DHT22;57519;51.494;-2.626;2023-04-07T08:55:14;9.05;72.10
70154;DHT22;57519;51.494;-2.626;2023-04-07T08:57:40;8.93;72.17
70154;DHT22;57519;51.494;-2.626;2023-04-07T09:03:35;9.23;72.43
70154;DHT22;57519;51.494;-2.626;2023-04-07T09:06:01;9.07;71.84
70154;DHT22;57519;51.494;-2.626;2023-04-07T09:08:27;9.15;72.47
70154;DHT22;57519;51.494;-2.626;2023-04-07T09:10:53;9.12;72.72
70154;DHT22;57519;51.494;-2.626;2023-04-07T09:13:19;9.33;73.21
70154;DHT22;57519;51.494;-2.626;2023-04-07T09:15:45;9.40;72.11
70154;DHT22;57519;51.494;-2.626;2023-04-07T09:21:24;9.28;71.47
70154;DHT22;57519;51.494;-2.626;2023-04-07T09:23:51;9.47;72.58
70154;DHT22;57519;51.494;-2.626;2023-04-07T09:26:18;9.47;71.35
70154;DHT22;57519;51.494;-2.626;2023-04-07T09:29:28;9.40;71.61
70154;DHT22;57519;51.494;-2.626;2023-04-07T09:34:58;9.50;71.45
70154;DHT22;57519;51.494;-2.626;2023-04-07T09:37:24;9.70;71.98
70154;DHT22;57519;51.494;-2.626;2023-04-07T09:39:51;9.70;70.53
70154;DHT22;57519;51.494;-2.626;2023-04-07T09:49:24;9.83;70.65
70154;DHT22;57519;51.494;-2.626;2023-04-07T09:55:30;9.93;69.10
70154;DHT22;57519;51.494;-2.626;2023-04-07T09:57:56;10.18;70.19
70154;DHT22;57519;51.494;-2.626;2023-04-07T10:00:23;10.46;69.47
70154;DHT22;57519;51.494;-2.626;2023-04-07T10:02:49;10.33;67.73
70154;DHT22;57519;51.494;-2.626;2023-04-07T10:05:16;10.36;68.36
70154;DHT22;57519;51.494;-2.626;2023-04-07T10:07:42;10.42;67.99
70154;DHT22;57519;51.494;-2.626;2023-04-07T10:10:08;10.73;68.95
70154;DHT22;57519;51.494;-2.626;2023-04-07T10:12:36;10.70;67.04
70154;DHT22;57519;51.494;-2.626;2023-04-07T10:15:01;10.64;64.34
70154;DHT22;57519;51.494;-2.626;2023-04-07T10:17:28;10.60;66.94
70154;DHT22;57519;51.494;-2.626;2023-04-07T10:19:57;10.55;66.61
70154;DHT22;57519;51.494;-2.626;2023-04-07T10:22:26;10.83;67.76
70154;DHT22;57519;51.494;-2.626;2023-04-07T10:25:05;10.84;63.66
70154;DHT22;57519;51.494;-2.626;2023-04-07T10:27:50;10.81;63.83
70154;DHT22;57519;51.494;-2.626;2023-04-07T10:30:24;10.89;64.75
70154;DHT22;57519;51.494;-2.626;2023-04-07T10:32:51;11.10;66.03
70154;DHT22;57519;51.494;-2.626;2023-04-07T10:35:18;11.17;66.20
70154;DHT22;57519;51.494;-2.626;2023-04-07T10:38:12;11.11;64.47
70154;DHT22;57519;51.494;-2.626;2023-04-07T10:40:38;11.11;64.00
70154;DHT22;57519;51.494;-2.626;2023-04-07T10:43:07;11.01;63.18
70154;DHT22;57519;51.494;-2.626;2023-04-07T10:48:14;11.36;64.45
70154;DHT22;57519;51.494;-2.626;2023-04-07T10:50:40;11.59;65.80
70154;DHT22;57519;51.494;-2.626;2023-04-07T10:55:44;11.32;62.73
70154;DHT22;57519;51.494;-2.626;2023-04-07T10:58:32;11.61;64.29
70154;DHT22;57519;51.494;-2.626;2023-04-07T11:03:38;11.43;59.42
70154;DHT22;57519;51.494;-2.626;2023-04-07T11:06:13;11.80;63.10
70154;DHT22;57519;51.494;-2.626;2023-04-07T11:12:00;11.63;59.85
70154;DHT22;57519;51.494;-2.626;2023-04-07T11:16:52;11.66;61.38
70154;DHT22;57519;51.494;-2.626;2023-04-07T11:19:19;12.21;63.13
70154;DHT22;57519;51.494;-2.626;2023-04-07T11:21:45;12.07;58.95
70154;DHT22;57519;51.494;-2.626;2023-04-07T11:24:30;12.00;60.25
70154;DHT22;57519;51.494;-2.626;2023-04-07T11:26:57;11.97;59.54
70154;DHT22;57519;51.494;-2.626;2023-04-07T11:29:32;11.98;58.05
70154;DHT22;57519;51.494;-2.626;2023-04-07T11:31:59;12.01;59.34
70154;DHT22;57519;51.494;-2.626;2023-04-07T11:34:33;12.03;56.45
70154;DHT22;57519;51.494;-2.626;2023-04-07T11:37:24;12.07;58.20
70154;DHT22;57519;51.494;-2.626;2023-04-07T11:39:53;12.34;54.74
70154;DHT22;57519;51.494;-2.626;2023-04-07T11:42:35;12.30;54.41
70154;DHT22;57519;51.494;-2.626;2023-04-07T11:45:01;12.18;51.57
70154;DHT22;57519;51.494;-2.626;2023-04-07T11:47:38;12.18;50.78
70154;DHT22;57519;51.494;-2.626;2023-04-07T11:50:04;12.42;52.58
70154;DHT22;57519;51.494;-2.626;2023-04-07T11:52:46;12.63;53.45
70154;DHT22;57519;51.494;-2.626;2023-04-07T11:55:22;12.35;52.24
70154;DHT22;57519;51.494;-2.626;2023-04-07T11:57:49;12.53;52.03
70154;DHT22;57519;51.494;-2.626;2023-04-07T12:00:19;12.59;46.25
70154;DHT22;57519;51.494;-2.626;2023-04-07T12:02:45;12.79;46.84
70154;DHT22;57519;51.494;-2.626;2023-04-07T12:05:11;12.83;46.40
70154;DHT22;57519;51.494;-2.626;2023-04-07T12:07:37;12.75;44.86
70154;DHT22;57519;51.494;-2.626;2023-04-07T12:10:23;12.66;42.86
70154;DHT22;57519;51.494;-2.626;2023-04-07T12:12:52;12.55;44.79
70154;DHT22;57519;51.494;-2.626;2023-04-07T12:15:17;13.09;50.39
70154;DHT22;57519;51.494;-2.626;2023-04-07T12:17:45;13.17;48.67
70154;DHT22;57519;51.494;-2.626;2023-04-07T12:20:12;13.33;48.31
70154;DHT22;57519;51.494;-2.626;2023-04-07T12:22:37;13.16;48.30
70154;DHT22;57519;51.494;-2.626;2023-04-07T12:25:03;13.02;51.19
70154;DHT22;57519;51.494;-2.626;2023-04-07T12:27:28;13.26;50.05
70154;DHT22;57519;51.494;-2.626;2023-04-07T12:29:54;13.34;50.81
70154;DHT22;57519;51.494;-2.626;2023-04-07T12:32:19;13.30;46.76
70154;DHT22;57519;51.494;-2.626;2023-04-07T12:34:45;13.17;46.29
70154;DHT22;57519;51.494;-2.626;2023-04-07T12:37:12;13.09;48.62
70154;DHT22;57519;51.494;-2.626;2023-04-07T12:39:37;13.11;46.72
70154;DHT22;57519;51.494;-2.626;2023-04-07T12:42:02;13.27;47.69
70154;DHT22;57519;51.494;-2.626;2023-04-07T12:44:29;13.53;46.20
70154;DHT22;57519;51.494;-2.626;2023-04-07T12:46:55;13.79;48.08
70154;DHT22;57519;51.494;-2.626;2023-04-07T12:49:20;13.81;45.02
70154;DHT22;57519;51.494;-2.626;2023-04-07T12:51:46;13.79;45.82
70154;DHT22;57519;51.494;-2.626;2023-04-07T12:54:11;13.44;40.92
70154;DHT22;57519;51.494;-2.626;2023-04-07T12:56:37;13.46;42.09
70154;DHT22;57519;51.494;-2.626;2023-04-07T12:59:02;13.50;42.09
70154;DHT22;57519;51.494;-2.626;2023-04-07T13:01:28;13.38;42.02
70154;DHT22;57519;51.494;-2.626;2023-04-07T13:03:53;13.62;44.83
70154;DHT22;57519;51.494;-2.626;2023-04-07T13:06:19;13.57;42.71
70154;DHT22;57519;51.494;-2.626;2023-04-07T13:08:44;13.41;40.95
70154;DHT22;57519;51.494;-2.626;2023-04-07T13:11:10;13.47;42.75
70154;DHT22;57519;51.494;-2.626;2023-04-07T13:13:35;13.61;42.91
70154;DHT22;57519;51.494;-2.626;2023-04-07T13:16:01;13.58;41.47
70154;DHT22;57519;51.494;-2.626;2023-04-07T13:18:27;13.74;44.80
70154;DHT22;57519;51.494;-2.626;2023-04-07T13:20:52;13.71;40.06
70154;DHT22;57519;51.494;-2.626;2023-04-07T13:23:17;13.90;40.65
70154;DHT22;57519;51.494;-2.626;2023-04-07T13:25:43;13.86;41.94
70154;DHT22;57519;51.494;-2.626;2023-04-07T13:28:08;13.92;40.74
70154;DHT22;57519;51.494;-2.626;2023-04-07T13:30:34;14.09;41.73
70154;DHT22;57519;51.494;-2.626;2023-04-07T13:32:59;14.27;43.07
70154;DHT22;57519;51.494;-2.626;2023-04-07T13:35:25;14.10;39.43
70154;DHT22;57519;51.494;-2.626;2023-04-07T13:37:50;13.89;40.04
70154;DHT22;57519;51.494;-2.626;2023-04-07T13:40:16;13.78;40.18
70154;DHT22;57519;51.494;-2.626;2023-04-07T13:42:41;13.83;38.39
70154;DHT22;57519;51.494;-2.626;2023-04-07T13:45:07;13.99;41.29
70154;DHT22;57519;51.494;-2.626;2023-04-07T13:47:34;14.17;42.00
70154;DHT22;57519;51.494;-2.626;2023-04-07T13:50:01;14.22;40.96
70154;DHT22;57519;51.494;-2.626;2023-04-07T13:52:26;14.41;42.64
70154;DHT22;57519;51.494;-2.626;2023-04-07T13:54:52;14.43;43.22
70154;DHT22;57519;51.494;-2.626;2023-04-07T13:57:18;14.37;42.05
70154;DHT22;57519;51.494;-2.626;2023-04-07T13:59:46;14.56;44.25
70154;DHT22;57519;51.494;-2.626;2023-04-07T14:02:13;14.26;41.80
70154;DHT22;57519;51.494;-2.626;2023-04-07T14:04:38;14.48;43.11
70154;DHT22;57519;51.494;-2.626;2023-04-07T14:07:04;14.56;42.19
70154;DHT22;57519;51.494;-2.626;2023-04-07T14:09:30;14.82;40.47
70154;DHT22;57519;51.494;-2.626;2023-04-07T14:11:55;14.92;42.72
70154;DHT22;57519;51.494;-2.626;2023-04-07T14:14:22;14.82;43.06
70154;DHT22;57519;51.494;-2.626;2023-04-07T14:16:48;14.74;40.61
70154;DHT22;57519;51.494;-2.626;2023-04-07T14:19:22;14.67;41.41
70154;DHT22;57519;51.494;-2.626;2023-04-07T14:21:49;14.51;45.03
70154;DHT22;57519;51.494;-2.626;2023-04-07T14:24:14;14.57;45.00
70154;DHT22;57519;51.494;-2.626;2023-04-07T14:26:42;14.40;44.72
70154;DHT22;57519;51.494;-2.626;2023-04-07T14:29:07;14.41;44.93
70154;DHT22;57519;51.494;-2.626;2023-04-07T14:31:33;14.23;44.33
70154;DHT22;57519;51.494;-2.626;2023-04-07T14:33:58;14.29;45.26
70154;DHT22;57519;51.494;-2.626;2023-04-07T14:36:24;14.48;45.91
70154;DHT22;57519;51.494;-2.626;2023-04-07T14:38:49;14.54;43.22
70154;DHT22;57519;51.494;-2.626;2023-04-07T14:41:15;14.77;47.48
70154;DHT22;57519;51.494;-2.626;2023-04-07T14:43:41;14.81;44.56
70154;DHT22;57519;51.494;-2.626;2023-04-07T14:46:06;14.72;43.34
70154;DHT22;57519;51.494;-2.626;2023-04-07T14:48:32;14.70;44.27
70154;DHT22;57519;51.494;-2.626;2023-04-07T14:50:58;14.74;44.09
70154;DHT22;57519;51.494;-2.626;2023-04-07T14:53:24;14.78;43.84
70154;DHT22;57519;51.494;-2.626;2023-04-07T14:55:49;14.70;45.06
70154;DHT22;57519;51.494;-2.626;2023-04-07T14:58:16;14.70;43.57
70154;DHT22;57519;51.494;-2.626;2023-04-07T15:00:41;15.12;47.03
70154;DHT22;57519;51.494;-2.626;2023-04-07T15:03:07;15.03;44.95
70154;DHT22;57519;51.494;-2.626;2023-04-07T15:05:32;14.71;44.56
70154;DHT22;57519;51.494;-2.626;2023-04-07T15:07:58;14.67;43.58
70154;DHT22;57519;51.494;-2.626;2023-04-07T15:10:24;14.70;43.33
70154;DHT22;57519;51.494;-2.626;2023-04-07T15:12:52;14.54;42.68
70154;DHT22;57519;51.494;-2.626;2023-04-07T15:15:18;14.54;44.62
70154;DHT22;57519;51.494;-2.626;2023-04-07T15:17:43;14.65;41.09
70154;DHT22;57519;51.494;-2.626;2023-04-07T15:20:09;14.63;42.57
70154;DHT22;57519;51.494;-2.626;2023-04-07T15:22:37;14.87;43.38
70154;DHT22;57519;51.494;-2.626;2023-04-07T15:25:02;15.13;42.96
70154;DHT22;57519;51.494;-2.626;2023-04-07T15:27:28;15.23;40.66
70154;DHT22;57519;51.494;-2.626;2023-04-07T15:33:41;15.42;42.72
70154;DHT22;57519;51.494;-2.626;2023-04-07T15:36:08;15.44;45.14
70154;DHT22;57519;51.494;-2.626;2023-04-07T15:38:34;15.33;43.84
70154;DHT22;57519;51.494;-2.626;2023-04-07T15:41:00;15.25;42.76
70154;DHT22;57519;51.494;-2.626;2023-04-07T15:43:25;15.35;42.30
70154;DHT22;57519;51.494;-2.626;2023-04-07T15:45:53;14.98;41.37
70154;DHT22;57519;51.494;-2.626;2023-04-07T15:48:19;15.16;43.90
70154;DHT22;57519;51.494;-2.626;2023-04-07T15:50:45;15.00;42.07
70154;DHT22;57519;51.494;-2.626;2023-04-07T15:53:11;15.35;41.60
70154;DHT22;57519;51.494;-2.626;2023-04-07T15:55:36;14.93;40.82
70154;DHT22;57519;51.494;-2.626;2023-04-07T15:58:02;14.92;42.16
70154;DHT22;57519;51.494;-2.626;2023-04-07T16:00:31;15.02;38.82
70154;DHT22;57519;51.494;-2.626;2023-04-07T16:02:57;15.05;39.69
70154;DHT22;57519;51.494;-2.626;2023-04-07T16:05:22;15.13;41.64
70154;DHT22;57519;51.494;-2.626;2023-04-07T16:07:48;15.19;42.48
70154;DHT22;57519;51.494;-2.626;2023-04-07T16:10:13;15.19;41.70